Historique des mesures à Cassis (13260), France
Quotidien Résumé Mai 9, 2017 Unités:  US    Métrique   Métrique/US
« Précédent (Jour)
Suivant (Jour) »
Quotidien Hebdomadaire Mensuel Annuel Période au choix
  Maximum: Minimum: Moyenne:
Température: 32 °F 51.8 °F 61.9 °F
Point de rosée: 32 °F 40.8 °F 46 °F
Humidité: Humidity % 45 % 54 %
Vitesse du vent: WindSpeedKMH mph 0.0 mph 3.3 mph
Rafales: WindSpeedGustKMH mph - -
Vent:- - ESE
Pression: 0 in 29.7 in -
Précipitations: 0 in    
Historical Graphs
 
 
Mesures pour : Mai 9, 2017
Heure Temperature Point de rosée Pression Vent Vitesse du vent Rafales Humidité Pluie (par heure) Conditions
32 °F 32 °F 0 in Calm     Humidity % 0 in SoftwareType W/m2
00:10 57.9 °F 43.2 °F 29.8 in NNE 16.6 mph 24.5 mph 58 % 0 in open2300-1.11 W/m2
01:10 57.2 °F 43 °F 29.8 in NNW 1.1 mph 1.1 mph 59 % 0 in open2300-1.11 W/m2
02:10 55.8 °F 42.4 °F 29.8 in North 10.8 mph 10.8 mph 61 % 0 in open2300-1.11 W/m2
03:10 54.7 °F 41.9 °F 29.7 in North 10.1 mph 10.8 mph 62 % 0 in open2300-1.11 W/m2
04:10 54.3 °F 41.5 °F 29.7 in ENE 1.4 mph 1.4 mph 62 % 0 in open2300-1.11 W/m2
05:10 52.7 °F 40.8 °F 29.7 in Calm   5.5 mph 64 % 0 in open2300-1.11 W/m2
06:11 51.8 °F 40.8 °F 29.7 in North 3.2 mph 5.0 mph 66 % 0 in open2300-1.11 W/m2
07:11 52.2 °F 41.2 °F 29.7 in NNW 6.8 mph 8.2 mph 66 % 0 in open2300-1.11 W/m2
08:11 59.4 °F 44.1 °F 29.7 in NNE 5.8 mph 5.8 mph 57 % 0 in open2300-1.11 W/m2
09:10 57.7 °F 43.5 °F 29.7 in NNE 1.4 mph 4.3 mph 59 % 0 in open2300-1.11 W/m2
10:10 61.2 °F 45.9 °F 29.7 in Calm   5.8 mph 57 % 0 in open2300-1.11 W/m2
11:10 68.7 °F 49.8 °F 29.7 in Calm   2.1 mph 51 % 0 in open2300-1.11 W/m2
12:10 72.1 °F 51.3 °F 29.7 in SSW 6.1 mph 7.2 mph 48 % 0 in open2300-1.11 W/m2
13:10 73.2 °F 51.1 °F 29.7 in SSE 6.8 mph 6.8 mph 46 % 0 in open2300-1.11 W/m2
14:10 73.4 °F 50.5 °F 29.7 in South 3.5 mph 4.3 mph 45 % 0 in open2300-1.11 W/m2
15:10 72.5 °F 49.8 °F 29.7 in SSE 1.8 mph 9.3 mph 45 % 0 in open2300-1.11 W/m2
16:10 72.3 °F 52.5 °F 29.7 in ESE 2.9 mph 3.2 mph 50 % 0 in open2300-1.11 W/m2
17:11 71.8 °F 51.1 °F 29.7 in SE 1.4 mph 8.7 mph 48 % 0 in open2300-1.11 W/m2
18:10 70.5 °F 51.4 °F 29.7 in Calm   2.9 mph 51 % 0 in open2300-1.11 W/m2
19:10 69.3 °F 50.4 °F 29.7 in SSE 4.0 mph 4.0 mph 51 % 0 in open2300-1.11 W/m2
20:10 67.3 °F 49.1 °F 29.7 in Calm     52 % 0 in open2300-1.11 W/m2
21:10 64.9 °F 48.7 °F 29.7 in Calm     56 % 0 in open2300-1.11 W/m2
22:10 62.2 °F 48.2 °F 29.7 in Calm   1.4 mph 60 % 0 in open2300-1.11 W/m2
23:10 60.6 °F 48.4 °F 29.7 in Calm     64 % 0 in open2300-1.11 W/m2
Observations météo à CASSIS
WU-History script by Weather Underground - 1 mb